createdAt,value
2022-08-11T00:01:19.644Z,17.20
2022-08-11T00:03:50.440Z,17.10
2022-08-11T00:06:26.761Z,17.10
2022-08-11T00:08:55.349Z,17.00
2022-08-11T00:11:31.808Z,17.00
2022-08-11T00:13:59.576Z,17.00
2022-08-11T00:16:27.849Z,17.00
2022-08-11T00:18:57.387Z,17.00
2022-08-11T00:22:01.931Z,16.90
2022-08-11T00:24:14.094Z,16.90
2022-08-11T00:26:41.039Z,16.80
2022-08-11T00:29:12.074Z,16.80
2022-08-11T00:31:51.720Z,16.80
2022-08-11T00:34:45.146Z,16.70
2022-08-11T00:37:19.621Z,16.70
2022-08-11T00:39:50.709Z,16.70
2022-08-11T00:42:26.500Z,16.60
2022-08-11T00:45:19.505Z,16.50
2022-08-11T00:48:11.234Z,16.50
2022-08-11T00:50:57.282Z,16.40
2022-08-11T00:53:27.865Z,16.30
2022-08-11T00:56:23.536Z,16.30
2022-08-11T00:59:04.457Z,16.30
2022-08-11T01:02:16.196Z,16.30
2022-08-11T01:04:42.935Z,16.20
2022-08-11T01:07:12.460Z,16.20
2022-08-11T01:09:53.592Z,16.10
2022-08-11T01:12:40.135Z,16.10
2022-08-11T01:15:31.650Z,16.00
2022-08-11T01:18:17.235Z,15.90
2022-08-11T01:21:05.896Z,15.80
2022-08-11T01:23:47.818Z,15.70
2022-08-11T01:26:45.388Z,15.60
2022-08-11T01:29:38.131Z,15.60
2022-08-11T01:32:32.441Z,15.50
2022-08-11T01:35:37.409Z,15.40
2022-08-11T01:38:10.364Z,15.40
2022-08-11T01:40:46.081Z,15.30
2022-08-11T01:43:59.255Z,15.10
2022-08-11T01:46:32.593Z,15.10
2022-08-11T01:50:09.289Z,15.00
2022-08-11T01:52:52.882Z,14.80
2022-08-11T01:55:45.844Z,14.80
2022-08-11T01:58:49.908Z,14.80
2022-08-11T02:01:36.239Z,14.80
2022-08-11T02:04:28.126Z,14.70
2022-08-11T02:07:19.474Z,14.70
2022-08-11T02:10:00.907Z,14.70
2022-08-11T02:12:46.090Z,14.60
2022-08-11T02:15:38.218Z,14.50
2022-08-11T02:18:14.519Z,14.40
2022-08-11T02:21:11.042Z,14.40
2022-08-11T02:24:06.157Z,14.30
2022-08-11T02:26:42.143Z,14.20
2022-08-11T02:29:23.794Z,14.10
2022-08-11T02:32:28.768Z,14.00
2022-08-11T02:35:26.649Z,14.00
2022-08-11T02:38:15.229Z,13.90
2022-08-11T02:40:45.012Z,13.90
2022-08-11T02:43:23.730Z,13.80
2022-08-11T02:46:18.224Z,13.70
2022-08-11T02:49:33.882Z,13.70
2022-08-11T02:52:21.309Z,13.70
2022-08-11T02:55:48.953Z,13.60
2022-08-11T02:58:44.402Z,13.50
2022-08-11T03:01:33.291Z,13.50
2022-08-11T03:04:13.978Z,13.40
2022-08-11T03:06:58.224Z,13.40
2022-08-11T03:09:49.898Z,13.30
2022-08-11T03:12:44.129Z,13.30
2022-08-11T03:15:46.605Z,13.20
2022-08-11T03:18:28.340Z,13.10
2022-08-11T03:21:02.917Z,13.10
2022-08-11T03:23:32.478Z,13.10
2022-08-11T03:26:23.025Z,13.00
2022-08-11T03:28:55.803Z,13.00
2022-08-11T03:31:28.342Z,13.00
2022-08-11T03:34:08.371Z,13.00
2022-08-11T03:37:15.067Z,12.90
2022-08-11T03:39:56.243Z,12.90
2022-08-11T03:42:26.746Z,12.80
2022-08-11T03:45:17.910Z,12.80
2022-08-11T03:48:13.973Z,12.70
2022-08-11T03:51:15.216Z,12.70
2022-08-11T03:54:12.427Z,12.70
2022-08-11T03:57:10.433Z,12.60
2022-08-11T04:00:19.229Z,12.60
2022-08-11T04:03:13.997Z,12.50
2022-08-11T04:06:13.185Z,12.50
2022-08-11T04:08:58.101Z,12.40
2022-08-11T04:12:06.152Z,12.40
2022-08-11T04:15:03.964Z,12.40
2022-08-11T04:18:01.399Z,12.40
2022-08-11T04:21:16.858Z,12.40
2022-08-11T04:24:37.998Z,12.40
2022-08-11T04:27:40.066Z,12.40
2022-08-11T04:30:40.653Z,12.30
2022-08-11T04:33:46.068Z,12.30
2022-08-11T04:36:59.684Z,12.30
2022-08-11T04:39:57.665Z,12.30
2022-08-11T04:42:58.168Z,12.30
2022-08-11T04:45:36.286Z,12.30
2022-08-11T04:48:49.699Z,12.30
2022-08-11T04:52:09.167Z,12.30
2022-08-11T04:55:13.622Z,12.50
2022-08-11T04:58:21.110Z,12.70
2022-08-11T05:01:37.889Z,12.80
2022-08-11T05:04:42.950Z,12.90
2022-08-11T05:07:15.337Z,13.10
2022-08-11T05:10:04.106Z,14.00
2022-08-11T05:12:48.991Z,15.20
2022-08-11T05:16:03.109Z,16.70
2022-08-11T05:18:50.622Z,18.30
2022-08-11T05:21:44.768Z,20.30
2022-08-11T05:24:44.548Z,22.00
2022-08-11T05:27:32.920Z,23.90
2022-08-11T05:30:24.409Z,25.40
2022-08-11T05:33:30.926Z,27.00
2022-08-11T05:36:17.521Z,28.50
2022-08-11T05:39:14.949Z,29.80
2022-08-11T05:42:01.392Z,30.80
2022-08-11T05:44:48.630Z,31.70
2022-08-11T05:47:44.135Z,32.60
2022-08-11T05:50:37.257Z,33.40
2022-08-11T05:53:29.517Z,33.90
2022-08-11T05:56:18.477Z,34.50
2022-08-11T05:58:51.710Z,35.10
2022-08-11T06:01:36.894Z,35.30
2022-08-11T06:04:16.735Z,35.20
2022-08-11T06:07:06.355Z,35.30
2022-08-11T06:09:40.345Z,35.70
2022-08-11T06:12:16.576Z,35.50
2022-08-11T06:14:46.084Z,35.60
2022-08-11T06:17:16.965Z,36.10
2022-08-11T06:19:47.788Z,35.80
2022-08-11T06:22:21.319Z,35.60
2022-08-11T06:24:59.773Z,35.90
2022-08-11T06:27:28.836Z,36.00
2022-08-11T06:29:57.129Z,36.00
2022-08-11T06:32:31.338Z,36.30
2022-08-11T06:35:16.936Z,35.50
2022-08-11T06:37:58.810Z,34.80
2022-08-11T06:40:34.417Z,34.30
2022-08-11T06:43:22.116Z,34.10
2022-08-11T06:46:03.348Z,34.20
2022-08-11T06:48:32.960Z,34.40
2022-08-11T06:51:12.108Z,34.40
2022-08-11T06:53:57.612Z,34.40
2022-08-11T06:57:06.640Z,34.30
2022-08-11T06:59:58.752Z,34.80
2022-08-11T07:02:33.813Z,34.70
2022-08-11T07:05:11.659Z,34.40
2022-08-11T07:08:34.853Z,34.40
2022-08-11T07:11:32.628Z,34.30
2022-08-11T07:14:20.821Z,34.30
2022-08-11T07:16:50.289Z,34.50
2022-08-11T07:19:44.613Z,34.80
2022-08-11T07:22:48.208Z,35.10
2022-08-11T07:25:35.710Z,35.20
2022-08-11T07:28:36.525Z,35.90
2022-08-11T07:31:13.915Z,36.90
2022-08-11T07:34:07.092Z,37.70
2022-08-11T07:36:44.285Z,38.00
2022-08-11T07:39:21.323Z,37.70
2022-08-11T07:41:49.993Z,37.90
2022-08-11T07:44:17.707Z,38.50
2022-08-11T07:47:12.592Z,38.90
2022-08-11T07:49:59.466Z,39.30
2022-08-11T07:52:30.827Z,39.30
2022-08-11T07:54:59.190Z,39.40
2022-08-11T07:58:14.251Z,39.40
2022-08-11T08:01:02.821Z,39.70
2022-08-11T08:03:54.167Z,40.00
2022-08-11T08:06:41.463Z,39.70
2022-08-11T08:09:27.847Z,38.90
2022-08-11T08:12:14.804Z,38.90
2022-08-11T08:15:01.544Z,38.80
2022-08-11T08:18:26.273Z,38.60
2022-08-11T08:20:57.394Z,38.50
2022-08-11T08:23:34.294Z,38.60
2022-08-11T08:26:04.598Z,38.50
2022-08-11T08:28:33.407Z,38.60
2022-08-11T08:31:00.748Z,38.30
2022-08-11T08:33:30.943Z,38.00
2022-08-11T08:36:12.446Z,37.90
2022-08-11T08:38:41.791Z,37.70
2022-08-11T08:41:10.158Z,37.80
2022-08-11T08:43:47.625Z,37.70
2022-08-11T08:46:20.774Z,37.90
2022-08-11T08:48:49.565Z,38.60
2022-08-11T08:52:01.866Z,39.10
2022-08-11T08:54:29.126Z,39.80
2022-08-11T08:56:57.135Z,40.10
2022-08-11T08:59:27.027Z,40.00
2022-08-11T09:02:14.273Z,39.80
2022-08-11T09:04:44.172Z,39.10
2022-08-11T09:07:16.982Z,38.90
2022-08-11T09:09:56.967Z,39.00
2022-08-11T09:12:45.860Z,38.90
2022-08-11T09:15:14.950Z,38.50
2022-08-11T09:17:50.312Z,38.00
2022-08-11T09:20:23.877Z,38.40
2022-08-11T09:26:19.393Z,38.40
2022-08-11T09:28:47.786Z,37.00
2022-08-11T09:31:15.449Z,36.50
2022-08-11T09:33:44.557Z,37.00
2022-08-11T09:36:46.556Z,37.60
2022-08-11T09:39:33.206Z,37.50
2022-08-11T09:42:04.504Z,36.70
2022-08-11T09:44:48.959Z,36.10
2022-08-11T09:47:29.708Z,35.80
2022-08-11T09:50:02.164Z,35.60
2022-08-11T09:52:52.263Z,35.30
2022-08-11T09:55:24.866Z,35.10
2022-08-11T09:58:09.965Z,34.50
2022-08-11T10:00:38.091Z,34.30
2022-08-11T10:03:09.876Z,34.40
2022-08-11T10:05:56.986Z,34.60
2022-08-11T10:08:28.707Z,34.70
2022-08-11T10:10:57.754Z,34.90
2022-08-11T10:14:31.296Z,34.90
2022-08-11T10:16:45.389Z,35.40
2022-08-11T10:19:12.646Z,34.90
2022-08-11T10:21:43.908Z,34.10
2022-08-11T10:24:30.753Z,33.90
2022-08-11T10:27:00.648Z,34.20
2022-08-11T10:29:51.008Z,34.20
2022-08-11T10:32:59.423Z,34.40
2022-08-11T10:35:29.508Z,34.50
2022-08-11T10:38:08.719Z,34.70
2022-08-11T10:40:39.649Z,34.90
2022-08-11T10:43:10.372Z,34.70
2022-08-11T10:45:58.244Z,34.30
2022-08-11T10:48:28.118Z,33.70
2022-08-11T10:51:14.548Z,32.90
2022-08-11T10:54:11.547Z,32.50
2022-08-11T10:56:58.850Z,32.40
2022-08-11T10:59:30.318Z,32.20
2022-08-11T11:01:59.126Z,31.80
2022-08-11T11:04:57.157Z,31.70
2022-08-11T11:07:36.738Z,31.50
2022-08-11T11:10:09.268Z,31.10
2022-08-11T11:13:02.221Z,30.80
2022-08-11T11:15:50.444Z,30.50
2022-08-11T11:18:25.741Z,30.20
2022-08-11T11:21:13.149Z,30.00
2022-08-11T11:23:49.591Z,29.70
2022-08-11T11:26:50.370Z,29.60
2022-08-11T11:29:31.043Z,29.60
2022-08-11T11:32:27.096Z,29.80
2022-08-11T11:35:15.771Z,29.60
2022-08-11T11:38:04.479Z,29.40
2022-08-11T11:40:33.250Z,29.40
2022-08-11T11:43:01.098Z,29.30
2022-08-11T11:45:28.822Z,29.20
2022-08-11T11:47:59.089Z,29.20
2022-08-11T11:50:31.753Z,29.00
2022-08-11T11:53:01.974Z,28.80
2022-08-11T11:55:30.182Z,28.50
2022-08-11T11:58:19.225Z,28.20
2022-08-11T12:01:06.235Z,28.10
2022-08-11T12:03:35.232Z,28.10
2022-08-11T12:06:04.046Z,28.00
2022-08-11T12:08:32.066Z,27.80
2022-08-11T12:11:23.245Z,27.60
2022-08-11T12:13:53.501Z,27.40
2022-08-11T12:16:34.259Z,27.40
2022-08-11T12:19:03.854Z,27.30
2022-08-11T12:21:31.485Z,27.20
2022-08-11T12:24:20.415Z,27.10
2022-08-11T12:27:15.912Z,27.00
2022-08-11T12:29:50.243Z,26.80
2022-08-11T12:32:24.468Z,26.60
2022-08-11T12:34:51.506Z,26.40
2022-08-11T12:37:23.761Z,26.30
2022-08-11T12:40:42.537Z,26.20
2022-08-11T12:43:37.876Z,26.20
2022-08-11T12:46:14.173Z,26.20
2022-08-11T12:49:16.732Z,26.20
2022-08-11T12:52:14.646Z,26.20
2022-08-11T12:55:03.729Z,26.20
2022-08-11T12:57:56.639Z,26.20
2022-08-11T13:00:44.088Z,26.20
2022-08-11T13:03:31.146Z,26.30
2022-08-11T13:06:04.187Z,26.30
2022-08-11T13:08:35.615Z,26.20
2022-08-11T13:11:21.772Z,26.20
2022-08-11T13:13:54.032Z,26.30
2022-08-11T13:16:26.382Z,26.40
2022-08-11T13:18:53.951Z,26.40
2022-08-11T13:21:21.962Z,26.40
2022-08-11T13:24:01.473Z,26.40
2022-08-11T13:26:48.378Z,26.40
2022-08-11T13:29:22.578Z,26.50
2022-08-11T13:31:50.523Z,26.50
2022-08-11T13:34:19.911Z,26.40
2022-08-11T13:36:52.694Z,26.40
2022-08-11T13:39:24.099Z,26.30
2022-08-11T13:41:52.325Z,26.30
2022-08-11T13:44:25.364Z,26.30
2022-08-11T13:46:56.340Z,26.30
2022-08-11T13:49:24.159Z,26.30
2022-08-11T13:51:52.582Z,26.30
2022-08-11T13:54:23.228Z,26.30
2022-08-11T13:56:54.139Z,26.20
2022-08-11T13:59:29.891Z,26.20
2022-08-11T14:02:22.923Z,26.20
2022-08-11T14:05:16.141Z,26.20
2022-08-11T14:07:52.521Z,26.20
2022-08-11T14:10:22.813Z,26.20
2022-08-11T14:13:29.120Z,26.20
2022-08-11T14:16:30.878Z,26.20
2022-08-11T14:19:04.604Z,26.20
2022-08-11T14:21:55.437Z,26.20
2022-08-11T14:24:23.140Z,26.30
2022-08-11T14:26:51.427Z,26.20
2022-08-11T14:29:21.139Z,26.20
2022-08-11T14:31:54.266Z,26.20
2022-08-11T14:34:23.659Z,26.20
2022-08-11T14:36:53.353Z,26.20
2022-08-11T14:39:25.366Z,26.20
2022-08-11T14:42:20.981Z,26.10
2022-08-11T14:45:08.302Z,26.00
2022-08-11T14:47:37.276Z,26.00
2022-08-11T14:50:10.879Z,26.00
2022-08-11T14:52:55.097Z,25.90
2022-08-11T14:55:42.361Z,25.90
2022-08-11T14:58:11.155Z,25.90
2022-08-11T15:00:39.364Z,25.90
2022-08-11T15:03:11.147Z,25.90
2022-08-11T15:05:41.602Z,25.90
2022-08-11T15:08:14.397Z,25.90
2022-08-11T15:10:41.725Z,25.90
2022-08-11T15:13:10.313Z,25.90
2022-08-11T15:15:59.005Z,25.90
2022-08-11T15:18:27.511Z,25.90
2022-08-11T15:21:14.002Z,25.90
2022-08-11T15:24:00.366Z,25.90
2022-08-11T15:26:53.209Z,26.00
2022-08-11T15:29:41.900Z,26.00
2022-08-11T15:32:23.701Z,26.10
2022-08-11T15:35:20.640Z,26.10
2022-08-11T15:37:52.927Z,26.20
2022-08-11T15:40:43.781Z,26.20
2022-08-11T15:43:39.357Z,26.20
2022-08-11T15:46:26.042Z,26.10
2022-08-11T15:49:00.916Z,26.00
2022-08-11T15:51:37.406Z,26.00
2022-08-11T15:54:15.666Z,25.90
2022-08-11T15:56:50.695Z,25.80
2022-08-11T15:59:41.470Z,25.70
2022-08-11T16:02:33.331Z,25.60
2022-08-11T16:05:02.910Z,25.50
2022-08-11T16:07:36.905Z,25.40
2022-08-11T16:10:17.208Z,25.30
2022-08-11T16:13:04.992Z,25.20
2022-08-11T16:15:58.556Z,25.20
2022-08-11T16:18:52.103Z,25.10
2022-08-11T16:21:35.058Z,25.00
2022-08-11T16:24:09.518Z,25.00
2022-08-11T16:27:07.523Z,24.90
2022-08-11T16:29:43.657Z,24.90
2022-08-11T16:32:17.248Z,24.80
2022-08-11T16:35:04.476Z,24.80
2022-08-11T16:37:53.156Z,24.70
2022-08-11T16:40:22.541Z,24.70
2022-08-11T16:43:11.649Z,24.70
2022-08-11T16:45:59.676Z,24.60
2022-08-11T16:48:36.034Z,24.60
2022-08-11T16:51:10.442Z,24.60
2022-08-11T16:54:00.011Z,24.60
2022-08-11T16:56:41.312Z,24.60
2022-08-11T16:59:16.594Z,24.50
2022-08-11T17:02:09.392Z,24.50
2022-08-11T17:05:00.418Z,24.40
2022-08-11T17:07:48.411Z,24.40
2022-08-11T17:11:01.560Z,24.30
2022-08-11T17:13:40.157Z,24.20
2022-08-11T17:16:12.775Z,24.20
2022-08-11T17:18:54.827Z,24.20
2022-08-11T17:21:29.861Z,24.10
2022-08-11T17:24:14.332Z,24.10
2022-08-11T17:26:57.645Z,24.10
2022-08-11T17:29:54.746Z,24.00
2022-08-11T17:33:05.576Z,24.00
2022-08-11T17:35:44.469Z,23.90
2022-08-11T17:38:20.125Z,23.90
2022-08-11T17:41:21.390Z,23.80
2022-08-11T17:44:10.885Z,23.70
2022-08-11T17:47:00.128Z,23.60
2022-08-11T17:49:37.271Z,23.50
2022-08-11T17:52:24.551Z,23.40
2022-08-11T17:55:13.470Z,23.30
2022-08-11T17:58:00.539Z,23.30
2022-08-11T18:00:28.041Z,23.20
2022-08-11T18:03:14.884Z,23.10
2022-08-11T18:05:44.461Z,23.10
2022-08-11T18:08:32.222Z,23.00
2022-08-11T18:12:06.099Z,23.00
2022-08-11T18:14:27.385Z,22.90
2022-08-11T18:17:12.898Z,22.90
2022-08-11T18:19:58.368Z,22.80
2022-08-11T18:22:50.124Z,22.70
2022-08-11T18:25:45.365Z,22.60
2022-08-11T18:28:33.790Z,22.50
2022-08-11T18:31:21.884Z,22.50
2022-08-11T18:34:12.060Z,22.40
2022-08-11T18:37:24.749Z,22.30
2022-08-11T18:40:19.212Z,22.20
2022-08-11T18:43:06.732Z,22.10
2022-08-11T18:46:05.337Z,22.00
2022-08-11T18:48:55.804Z,22.00
2022-08-11T18:51:43.379Z,21.80
2022-08-11T18:54:30.434Z,21.80
2022-08-11T18:57:20.791Z,21.70
2022-08-11T19:00:08.703Z,21.60
2022-08-11T19:02:56.272Z,21.50
2022-08-11T19:06:32.384Z,21.40
2022-08-11T19:08:55.082Z,21.30
2022-08-11T19:11:43.542Z,21.20
2022-08-11T19:14:30.998Z,21.10
2022-08-11T19:17:43.676Z,21.00
2022-08-11T19:20:27.148Z,20.90
2022-08-11T19:23:14.620Z,20.90
2022-08-11T19:26:02.648Z,20.80
2022-08-11T19:28:49.175Z,20.70
2022-08-11T19:31:35.203Z,20.60
2022-08-11T19:34:23.320Z,20.50
2022-08-11T19:37:10.236Z,20.40
2022-08-11T19:39:56.403Z,20.30
2022-08-11T19:42:42.374Z,20.20
2022-08-11T19:45:28.143Z,20.10
2022-08-11T19:48:31.350Z,20.10
2022-08-11T19:51:19.343Z,20.00
2022-08-11T19:54:06.387Z,20.00
2022-08-11T19:56:53.803Z,19.90
2022-08-11T19:59:41.804Z,19.90
2022-08-11T20:02:28.419Z,19.80
2022-08-11T20:05:13.807Z,19.70
2022-08-11T20:07:59.344Z,19.60
2022-08-11T20:10:46.325Z,19.50
2022-08-11T20:13:33.343Z,19.30
2022-08-11T20:16:21.354Z,19.20
2022-08-11T20:19:08.683Z,19.00
2022-08-11T20:21:55.653Z,18.90
2022-08-11T20:24:41.309Z,18.70
2022-08-11T20:27:28.171Z,18.60
2022-08-11T20:30:16.192Z,18.50
2022-08-11T20:33:02.095Z,18.40
2022-08-11T20:35:48.467Z,18.20
2022-08-11T20:38:35.540Z,18.10
2022-08-11T20:41:22.182Z,18.00
2022-08-11T20:44:09.670Z,17.90
2022-08-11T20:46:57.577Z,17.80
2022-08-11T20:49:53.670Z,17.70
2022-08-11T20:52:47.339Z,17.70
2022-08-11T20:55:51.518Z,17.60
2022-08-11T20:59:13.322Z,17.60
2022-08-11T21:01:46.999Z,17.70
2022-08-11T21:04:37.393Z,17.80
2022-08-11T21:07:41.825Z,17.90
2022-08-11T21:10:30.082Z,18.10
2022-08-11T21:13:25.117Z,18.20
2022-08-11T21:16:26.196Z,18.30
2022-08-11T21:20:01.511Z,18.30
2022-08-11T21:22:59.283Z,18.30
2022-08-11T21:26:02.104Z,18.30
2022-08-11T21:28:48.609Z,18.30
2022-08-11T21:31:34.912Z,18.30
2022-08-11T21:34:21.768Z,18.30
2022-08-11T21:37:08.864Z,18.30
2022-08-11T21:39:55.018Z,18.30
2022-08-11T21:42:41.361Z,18.30
2022-08-11T21:45:28.744Z,18.30
2022-08-11T21:48:15.388Z,18.30
2022-08-11T21:51:01.126Z,18.20
2022-08-11T21:53:46.612Z,18.10
2022-08-11T21:56:33.111Z,18.10
2022-08-11T21:59:19.523Z,18.00
2022-08-11T22:02:11.906Z,18.00
2022-08-11T22:04:58.405Z,17.90
2022-08-11T22:07:43.936Z,17.90
2022-08-11T22:10:42.408Z,17.80
2022-08-11T22:13:32.637Z,17.70
2022-08-11T22:16:18.687Z,17.60
2022-08-11T22:19:06.139Z,17.50
2022-08-11T22:22:02.869Z,17.30
2022-08-11T22:24:51.435Z,17.20
2022-08-11T22:27:36.950Z,17.20
2022-08-11T22:30:27.535Z,17.10
2022-08-11T22:33:15.144Z,17.10
2022-08-11T22:36:02.269Z,17.00
2022-08-11T22:38:49.799Z,16.90
2022-08-11T22:41:35.460Z,16.80
2022-08-11T22:44:21.913Z,16.60
2022-08-11T22:47:10.034Z,16.50
2022-08-11T22:49:58.718Z,16.40
2022-08-11T22:52:46.369Z,16.30
2022-08-11T22:55:32.949Z,16.20
2022-08-11T22:58:19.048Z,16.10
2022-08-11T23:01:04.719Z,16.10
2022-08-11T23:03:51.710Z,16.00
2022-08-11T23:06:39.292Z,15.80
2022-08-11T23:09:26.315Z,15.70
2022-08-11T23:12:12.936Z,15.70
2022-08-11T23:14:59.354Z,15.60
2022-08-11T23:17:46.250Z,15.50
2022-08-11T23:20:36.442Z,15.40
2022-08-11T23:23:26.993Z,15.20
2022-08-11T23:26:14.431Z,15.10
2022-08-11T23:29:05.000Z,15.00
2022-08-11T23:31:53.754Z,14.90
2022-08-11T23:35:04.162Z,14.80
2022-08-11T23:37:50.467Z,14.70
2022-08-11T23:40:36.113Z,14.60
2022-08-11T23:43:22.126Z,14.60
2022-08-11T23:46:07.542Z,14.50
2022-08-11T23:48:55.488Z,14.40
2022-08-11T23:51:41.640Z,14.40
2022-08-11T23:54:30.709Z,14.30
2022-08-11T23:57:18.274Z,14.30
